Time;durP1;ratioP1;P1;durP2;ratioP2;P2;SDS_P1;SDS_P2;PMS_P1;PMS_P2;Temp;Humidity;BMP_temperature;BMP_pressure;BME280_temperature;BME280_humidity;BME280_pressure;Samples;Min_cycle;Max_cycle;Signal;HPM_P1;HPM_P2
2023/06/26 00:00:44;;;;;;;12.70;11.30;;;;;;;;;;4951876;29;20043;-62
2023/06/26 00:03:14;;;;;;;13.90;10.30;;;;;;;;;;4951845;29;20051;-62
2023/06/26 00:05:39;;;;;;;12.33;9.73;;;;;;;;;;4951876;29;20055;-62
2023/06/26 00:08:06;;;;;;;14.53;10.27;;;;;;;;;;4960312;28;20058;-62
2023/06/26 00:10:32;;;;;;;14.23;10.27;;;;;;;;;;4971045;28;20118;-62
2023/06/26 00:12:58;;;;;;;11.47;10.33;;;;;;;;;;4963102;28;20106;-62
2023/06/26 00:15:24;;;;;;;13.33;10.47;;;;;;;;;;4950685;28;20046;-62
2023/06/26 00:17:50;;;;;;;11.30;9.63;;;;;;;;;;4951481;29;20047;-62
2023/06/26 00:20:18;;;;;;;11.53;10.33;;;;;;;;;;4951318;29;20051;-62
2023/06/26 00:22:45;;;;;;;15.00;10.10;;;;;;;;;;4951485;29;20059;-62
2023/06/26 00:25:11;;;;;;;13.27;10.37;;;;;;;;;;4951615;29;20044;-62
2023/06/26 00:27:37;;;;;;;14.90;10.77;;;;;;;;;;4951798;29;20055;-62
2023/06/26 00:30:03;;;;;;;11.47;10.03;;;;;;;;;;4951293;29;20528;-62
2023/06/26 00:32:29;;;;;;;11.47;9.77;;;;;;;;;;4950696;28;20090;-62
2023/06/26 00:34:55;;;;;;;13.00;10.60;;;;;;;;;;4951674;29;20074;-62
2023/06/26 00:37:22;;;;;;;12.47;10.60;;;;;;;;;;4950922;29;20051;-62
2023/06/26 00:39:48;;;;;;;14.27;10.50;;;;;;;;;;4951606;29;20481;-61
2023/06/26 00:42:14;;;;;;;11.47;10.27;;;;;;;;;;4951326;28;20065;-62
2023/06/26 00:44:40;;;;;;;12.43;10.10;;;;;;;;;;4970382;28;20572;-62
2023/06/26 00:47:06;;;;;;;11.93;10.63;;;;;;;;;;4970084;28;20134;-62
2023/06/26 00:49:32;;;;;;;13.10;11.57;;;;;;;;;;4970433;28;20045;-62
2023/06/26 00:51:58;;;;;;;12.17;10.47;;;;;;;;;;4969937;28;20046;-62
2023/06/26 00:54:24;;;;;;;12.93;11.10;;;;;;;;;;4969719;28;20056;-62
2023/06/26 00:56:50;;;;;;;12.03;10.80;;;;;;;;;;4970215;28;20123;-62
2023/06/26 00:59:16;;;;;;;11.83;10.67;;;;;;;;;;4970375;28;20042;-61
2023/06/26 01:01:42;;;;;;;11.70;10.50;;;;;;;;;;4970061;28;20515;-62
2023/06/26 01:04:17;;;;;;;13.27;10.67;;;;;;;;;;4969603;28;20053;-62
2023/06/26 01:06:48;;;;;;;12.63;10.93;;;;;;;;;;4969692;28;20109;-62
2023/06/26 01:09:14;;;;;;;13.57;10.73;;;;;;;;;;4969921;28;20062;-62
2023/06/26 01:11:40;;;;;;;14.27;10.60;;;;;;;;;;4969934;28;20050;-62
2023/06/26 01:14:06;;;;;;;15.03;10.73;;;;;;;;;;4950109;28;20126;-62
2023/06/26 01:16:32;;;;;;;14.37;11.03;;;;;;;;;;4950350;29;20505;-62
2023/06/26 01:18:59;;;;;;;13.17;10.90;;;;;;;;;;4950783;29;20043;-62
2023/06/26 01:21:32;;;;;;;13.60;12.20;;;;;;;;;;4950414;29;20083;-62
2023/06/26 01:24:06;;;;;;;14.43;12.23;;;;;;;;;;4949908;29;20043;-62
2023/06/26 01:26:35;;;;;;;14.53;12.47;;;;;;;;;;4950425;29;20098;-61
2023/06/26 01:29:02;;;;;;;14.03;11.13;;;;;;;;;;4950424;29;20058;-62
2023/06/26 01:31:29;;;;;;;15.47;11.87;;;;;;;;;;4950521;29;20047;-62
2023/06/26 01:33:56;;;;;;;12.87;11.50;;;;;;;;;;4953826;28;20539;-62
2023/06/26 01:36:22;;;;;;;14.03;12.50;;;;;;;;;;4969169;28;20051;-62
2023/06/26 01:38:48;;;;;;;18.83;12.43;;;;;;;;;;4969727;28;20047;-62
2023/06/26 01:41:14;;;;;;;13.23;11.13;;;;;;;;;;4969410;28;20054;-62
2023/06/26 01:43:40;;;;;;;14.50;13.07;;;;;;;;;;4969498;28;20045;-62
2023/06/26 01:46:09;;;;;;;14.43;12.20;;;;;;;;;;4969495;28;20424;-62
2023/06/26 01:48:38;;;;;;;17.10;12.70;;;;;;;;;;4967106;28;20408;-62
2023/06/26 01:51:07;;;;;;;13.97;12.23;;;;;;;;;;4969477;28;20039;-62
2023/06/26 01:53:39;;;;;;;16.37;13.20;;;;;;;;;;4969406;28;20054;-62
2023/06/26 01:56:12;;;;;;;15.90;11.47;;;;;;;;;;4969202;28;20038;-62
2023/06/26 01:58:38;;;;;;;;;;;;;;;;;;4969230;28;20304;-62
2023/06/26 02:01:04;;;;;;;13.17;11.87;;;;;;;;;;4959445;28;19926;-62
2023/06/26 02:03:30;;;;;;;14.90;13.30;;;;;;;;;;4958043;28;20071;-62
2023/06/26 02:05:56;;;;;;;13.60;12.30;;;;;;;;;;4949623;29;20050;-62
2023/06/26 02:08:23;;;;;;;14.83;12.60;;;;;;;;;;4961053;28;20089;-62
2023/06/26 02:10:49;;;;;;;13.40;12.03;;;;;;;;;;4969197;28;20567;-62
2023/06/26 02:13:15;;;;;;;14.37;12.37;;;;;;;;;;4969165;28;20505;-61
2023/06/26 02:15:41;;;;;;;14.27;12.77;;;;;;;;;;4952448;28;20055;-62
2023/06/26 02:18:07;;;;;;;13.73;12.33;;;;;;;;;;4973006;28;20042;-62
2023/06/26 02:20:33;;;;;;;15.63;13.73;;;;;;;;;;4973152;28;20051;-62
2023/06/26 02:22:59;;;;;;;16.00;13.00;;;;;;;;;;4972997;28;20054;-62
2023/06/26 02:25:25;;;;;;;18.90;13.43;;;;;;;;;;4972737;28;20042;-62
2023/06/26 02:27:51;;;;;;;17.60;14.40;;;;;;;;;;4972313;28;20054;-62
2023/06/26 02:30:17;;;;;;;15.40;13.90;;;;;;;;;;4972303;28;20051;-62
2023/06/26 02:32:43;;;;;;;16.77;14.53;;;;;;;;;;4972274;28;20603;-62
2023/06/26 02:35:09;;;;;;;17.03;14.70;;;;;;;;;;4973031;28;20142;-61
2023/06/26 02:37:35;;;;;;;15.87;14.27;;;;;;;;;;4972936;28;20092;-62
2023/06/26 02:40:01;;;;;;;17.47;14.83;;;;;;;;;;4971804;28;20051;-62
2023/06/26 02:42:27;;;;;;;16.13;14.53;;;;;;;;;;4972926;28;20047;-62
2023/06/26 02:44:53;;;;;;;17.17;14.53;;;;;;;;;;4972438;28;20050;-62
2023/06/26 02:47:19;;;;;;;17.73;15.83;;;;;;;;;;4972101;28;20093;-62
2023/06/26 02:49:45;;;;;;;17.57;15.63;;;;;;;;;;4972118;28;20536;-62
2023/06/26 02:52:11;;;;;;;18.70;15.70;;;;;;;;;;4972419;28;20054;-62
2023/06/26 02:54:37;;;;;;;17.70;15.33;;;;;;;;;;4973013;28;20047;-62
2023/06/26 02:57:03;;;;;;;17.37;15.67;;;;;;;;;;4972233;28;20050;-62
2023/06/26 02:59:29;;;;;;;18.23;16.37;;;;;;;;;;4971760;28;20081;-62
2023/06/26 03:01:55;;;;;;;18.90;16.87;;;;;;;;;;4972531;28;20085;-62
2023/06/26 03:04:21;;;;;;;19.57;17.17;;;;;;;;;;4972148;28;20043;-62
2023/06/26 03:06:47;;;;;;;18.77;16.87;;;;;;;;;;4972370;28;20046;-62
2023/06/26 03:09:13;;;;;;;18.13;16.33;;;;;;;;;;4970994;28;20091;-61
2023/06/26 03:11:39;;;;;;;16.57;14.87;;;;;;;;;;4972154;28;20047;-61
2023/06/26 03:14:05;;;;;;;20.53;15.67;;;;;;;;;;4972362;28;20043;-62
2023/06/26 03:16:31;;;;;;;18.70;15.73;;;;;;;;;;4972121;28;20061;-62
2023/06/26 03:18:57;;;;;;;18.40;16.40;;;;;;;;;;4970555;28;20050;-62
2023/06/26 03:21:23;;;;;;;16.17;14.47;;;;;;;;;;4971932;28;20098;-62
2023/06/26 03:23:49;;;;;;;16.83;14.97;;;;;;;;;;4971872;28;20398;-62
2023/06/26 03:26:15;;;;;;;15.83;14.00;;;;;;;;;;4971777;28;20043;-62
2023/06/26 03:28:44;;;;;;;16.30;14.40;;;;;;;;;;4969752;28;20409;-62
2023/06/26 03:31:10;;;;;;;16.20;14.50;;;;;;;;;;4971133;28;20042;-62
2023/06/26 03:33:37;;;;;;;16.37;13.30;;;;;;;;;;4971354;28;20061;-62
2023/06/26 03:36:03;;;;;;;16.40;13.87;;;;;;;;;;4971690;28;20057;-62
2023/06/26 03:38:29;;;;;;;17.53;13.13;;;;;;;;;;4968729;28;20055;-62
2023/06/26 03:40:55;;;;;;;13.43;12.13;;;;;;;;;;4971117;28;20097;-62
2023/06/26 03:43:21;;;;;;;15.37;11.57;;;;;;;;;;4971119;28;20043;-62
2023/06/26 03:45:47;;;;;;;13.03;11.73;;;;;;;;;;4971686;28;20047;-62
2023/06/26 03:48:13;;;;;;;12.60;11.23;;;;;;;;;;4970288;28;20045;-62
2023/06/26 03:50:39;;;;;;;14.20;11.87;;;;;;;;;;4967818;28;20106;-62
2023/06/26 03:53:05;;;;;;;12.97;11.03;;;;;;;;;;4951217;29;20390;-62
2023/06/26 03:55:31;;;;;;;16.17;11.27;;;;;;;;;;4951240;29;20137;-62
2023/06/26 03:57:57;;;;;;;15.80;10.27;;;;;;;;;;4950941;28;20122;-62
2023/06/26 04:00:23;;;;;;;16.87;10.07;;;;;;;;;;4951739;29;20226;-62
2023/06/26 04:02:51;;;;;;;12.67;10.70;;;;;;;;;;4951574;29;20047;-62
2023/06/26 04:05:17;;;;;;;13.00;9.70;;;;;;;;;;4951928;29;20078;-62
2023/06/26 04:07:43;;;;;;;11.97;10.30;;;;;;;;;;4950994;28;20728;-62
2023/06/26 04:10:09;;;;;;;12.83;10.63;;;;;;;;;;4951368;29;20121;-62
2023/06/26 04:12:36;;;;;;;12.00;9.90;;;;;;;;;;4951840;29;20076;-62
2023/06/26 04:15:02;;;;;;;12.67;9.97;;;;;;;;;;4951808;29;21367;-62
2023/06/26 04:17:28;;;;;;;12.17;10.80;;;;;;;;;;4950021;29;20058;-62
2023/06/26 04:19:54;;;;;;;12.40;10.33;;;;;;;;;;4951626;29;20051;-62
2023/06/26 04:22:20;;;;;;;16.63;12.30;;;;;;;;;;4951500;29;20159;-62
2023/06/26 04:24:46;;;;;;;13.53;12.23;;;;;;;;;;4951449;29;20054;-62
2023/06/26 04:27:13;;;;;;;15.60;12.10;;;;;;;;;;4951318;29;20043;-62
2023/06/26 04:29:39;;;;;;;13.43;12.03;;;;;;;;;;4950768;29;20090;-62
2023/06/26 04:32:06;;;;;;;13.97;11.37;;;;;;;;;;4950723;28;20497;-62
2023/06/26 04:34:33;;;;;;;14.27;10.73;;;;;;;;;;4951220;29;20110;-62
2023/06/26 04:36:59;;;;;;;13.43;10.90;;;;;;;;;;4950560;29;20572;-62
2023/06/26 04:39:26;;;;;;;13.77;10.50;;;;;;;;;;4930924;29;20083;-62
2023/06/26 04:41:52;;;;;;;18.00;10.50;;;;;;;;;;4931606;29;20052;-62
2023/06/26 04:44:18;;;;;;;13.60;10.60;;;;;;;;;;4932159;29;20068;-62
2023/06/26 04:46:44;;;;;;;14.73;9.70;;;;;;;;;;4931479;29;20058;-62
2023/06/26 04:49:10;;;;;;;15.23;8.60;;;;;;;;;;4948119;29;20050;-62
2023/06/26 04:51:40;;;;;;;15.27;8.37;;;;;;;;;;4950741;29;20051;-62
2023/06/26 04:54:09;;;;;;;17.63;9.43;;;;;;;;;;4950980;29;20055;-62
2023/06/26 04:56:35;;;;;;;17.53;9.17;;;;;;;;;;4950550;29;20134;-62
2023/06/26 04:59:01;;;;;;;18.57;8.37;;;;;;;;;;4949500;29;20526;-62
2023/06/26 05:01:29;;;;;;;16.47;7.67;;;;;;;;;;4951053;29;20520;-62
2023/06/26 05:03:56;;;;;;;17.20;8.20;;;;;;;;;;4951132;29;20476;-62
2023/06/26 05:06:21;;;;;;;23.90;8.53;;;;;;;;;;4951011;29;20142;-62
2023/06/26 05:08:47;;;;;;;18.70;7.90;;;;;;;;;;4950025;28;20149;-62
2023/06/26 05:11:13;;;;;;;16.43;7.97;;;;;;;;;;4932823;29;20478;-62
2023/06/26 05:13:40;;;;;;;14.17;6.87;;;;;;;;;;4950552;29;20067;-62
2023/06/26 05:16:08;;;;;;;16.20;7.03;;;;;;;;;;4950303;29;20477;-62
2023/06/26 05:18:34;;;;;;;19.27;8.17;;;;;;;;;;4961500;28;20050;-62
2023/06/26 05:21:01;;;;;;;16.00;7.57;;;;;;;;;;4969435;28;20417;-62
2023/06/26 05:23:27;;;;;;;13.30;7.20;;;;;;;;;;4969442;28;20137;-62
2023/06/26 05:25:53;;;;;;;20.47;7.17;;;;;;;;;;4970053;28;20050;-62
2023/06/26 05:28:20;;;;;;;18.63;7.90;;;;;;;;;;4964711;28;20047;-62
2023/06/26 05:30:46;;;;;;;15.57;7.63;;;;;;;;;;4956195;28;20462;-63
2023/06/26 05:33:14;;;;;;;22.17;7.50;;;;;;;;;;4949989;29;20102;-62
2023/06/26 05:35:41;;;;;;;15.07;8.30;;;;;;;;;;4950445;29;20142;-62
2023/06/26 05:38:07;;;;;;;12.00;6.70;;;;;;;;;;4949935;29;20401;-62
2023/06/26 05:40:34;;;;;;;15.53;7.50;;;;;;;;;;4955675;28;20047;-62
2023/06/26 05:43:00;;;;;;;13.87;7.00;;;;;;;;;;4965172;28;20057;-62
2023/06/26 05:45:26;;;;;;;16.23;7.47;;;;;;;;;;4949688;28;20050;-62
2023/06/26 05:47:52;;;;;;;15.07;6.57;;;;;;;;;;4948909;29;20307;-62
2023/06/26 05:50:19;;;;;;;11.37;6.60;;;;;;;;;;4950197;28;20082;-62
2023/06/26 05:52:45;;;;;;;15.00;6.63;;;;;;;;;;4953980;29;20114;-63
2023/06/26 05:55:12;;;;;;;11.83;6.30;;;;;;;;;;4955431;28;20039;-62
2023/06/26 05:57:39;;;;;;;9.80;5.57;;;;;;;;;;4953415;28;20066;-62
2023/06/26 06:00:10;;;;;;;9.67;5.63;;;;;;;;;;4953630;29;20043;-62
2023/06/26 06:02:36;;;;;;;13.97;6.03;;;;;;;;;;4954179;29;20043;-62
2023/06/26 06:05:02;;;;;;;11.57;5.30;;;;;;;;;;4954309;29;20138;-62
2023/06/26 06:07:28;;;;;;;9.77;4.30;;;;;;;;;;4957636;28;20133;-62
2023/06/26 06:09:54;;;;;;;8.43;3.60;;;;;;;;;;4973560;28;20497;-62
2023/06/26 06:12:20;;;;;;;13.83;4.10;;;;;;;;;;4955387;28;20094;-62
2023/06/26 06:14:46;;;;;;;6.30;3.13;;;;;;;;;;4953805;29;20049;-62
2023/06/26 06:17:12;;;;;;;6.40;2.50;;;;;;;;;;4954221;29;20103;-62
2023/06/26 06:19:38;;;;;;;7.83;2.07;;;;;;;;;;4958026;28;20074;-62
2023/06/26 06:22:04;;;;;;;5.50;1.83;;;;;;;;;;4973097;28;20416;-62
2023/06/26 06:24:30;;;;;;;7.23;2.30;;;;;;;;;;4973128;28;20130;-62
2023/06/26 06:26:56;;;;;;;4.23;1.80;;;;;;;;;;4964581;28;20134;-62
2023/06/26 06:29:22;;;;;;;5.73;2.10;;;;;;;;;;4958315;28;20050;-62
2023/06/26 06:31:47;;;;;;;3.63;1.60;;;;;;;;;;4954243;28;20043;-62
2023/06/26 06:34:13;;;;;;;4.07;1.70;;;;;;;;;;4953083;29;20420;-62
2023/06/26 06:36:40;;;;;;;5.17;2.00;;;;;;;;;;4935165;29;20047;-62
2023/06/26 06:39:06;;;;;;;6.00;1.73;;;;;;;;;;4953125;29;20058;-62
2023/06/26 06:41:32;;;;;;;4.97;1.70;;;;;;;;;;4952858;29;20039;-67
2023/06/26 06:43:58;;;;;;;6.20;2.00;;;;;;;;;;4952966;29;20047;-62
2023/06/26 06:46:26;;;;;;;7.20;1.90;;;;;;;;;;4961910;28;20157;-62
2023/06/26 06:48:52;;;;;;;6.53;1.97;;;;;;;;;;4965488;28;20060;-62
2023/06/26 06:51:18;;;;;;;7.07;2.07;;;;;;;;;;4952794;28;20043;-63
2023/06/26 06:53:44;;;;;;;11.00;2.87;;;;;;;;;;4951894;29;20105;-62
2023/06/26 06:56:10;;;;;;;6.47;2.23;;;;;;;;;;4950187;29;20051;-62
2023/06/26 06:58:36;;;;;;;7.03;2.37;;;;;;;;;;4952442;29;20047;-62
2023/06/26 07:01:04;;;;;;;5.93;2.50;;;;;;;;;;4953124;29;20047;-62
2023/06/26 07:03:30;;;;;;;6.60;3.03;;;;;;;;;;4951381;28;20066;-62
2023/06/26 07:05:56;;;;;;;5.93;2.10;;;;;;;;;;4951610;29;20050;-62
2023/06/26 07:08:22;;;;;;;6.60;2.10;;;;;;;;;;4963016;28;20487;-61
2023/06/26 07:10:48;;;;;;;4.20;1.77;;;;;;;;;;4972349;28;20051;-61
2023/06/26 07:13:14;;;;;;;3.93;1.70;;;;;;;;;;4952150;28;20043;-63
2023/06/26 07:15:40;;;;;;;8.50;2.13;;;;;;;;;;4965891;28;20047;-62
2023/06/26 07:18:06;;;;;;;7.60;2.10;;;;;;;;;;4971458;28;20567;-62
2023/06/26 07:20:32;;;;;;;8.17;2.43;;;;;;;;;;4972177;28;20034;-62
2023/06/26 07:22:58;;;;;;;5.27;2.17;;;;;;;;;;4972345;28;20108;-62
2023/06/26 07:25:24;;;;;;;6.37;1.90;;;;;;;;;;4971699;28;20444;-61
2023/06/26 07:27:50;;;;;;;6.00;2.30;;;;;;;;;;4970247;28;20204;-62
2023/06/26 07:30:16;;;;;;;7.03;2.50;;;;;;;;;;4970342;28;20050;-62
2023/06/26 07:32:42;;;;;;;5.53;1.83;;;;;;;;;;4967291;28;20050;-63
2023/06/26 07:35:08;;;;;;;3.80;1.90;;;;;;;;;;4964510;28;20047;-62
2023/06/26 07:37:34;;;;;;;5.60;2.00;;;;;;;;;;4959424;28;20055;-62
2023/06/26 07:40:00;;;;;;;4.67;1.77;;;;;;;;;;4952097;28;20047;-62
2023/06/26 07:42:26;;;;;;;4.27;1.60;;;;;;;;;;4967865;28;20117;-62
2023/06/26 07:44:52;;;;;;;5.90;1.80;;;;;;;;;;4961946;28;20079;-62
2023/06/26 07:47:18;;;;;;;4.47;1.60;;;;;;;;;;4956509;28;20054;-62
2023/06/26 07:49:44;;;;;;;4.37;1.70;;;;;;;;;;4954998;28;20518;-62
2023/06/26 07:52:10;;;;;;;6.87;1.67;;;;;;;;;;4969497;28;20045;-62
2023/06/26 07:54:37;;;;;;;5.40;1.60;;;;;;;;;;4971773;28;20062;-61
2023/06/26 07:57:06;;;;;;;3.77;1.50;;;;;;;;;;4964083;28;20047;-62
2023/06/26 07:59:33;;;;;;;5.03;2.20;;;;;;;;;;4952114;28;20043;-62
2023/06/26 08:01:59;;;;;;;4.37;1.50;;;;;;;;;;4952225;29;20126;-62
2023/06/26 08:04:26;;;;;;;7.43;1.48;;;;;;;;;;4984498;28;20075;-62
2023/06/26 08:06:53;;;;;;;4.80;1.75;;;;;;;;;;4979607;28;20045;-62
2023/06/26 08:09:20;;;;;;;3.28;1.77;;;;;;;;;;4970624;28;20055;-62
2023/06/26 08:11:46;;;;;;;6.88;1.77;;;;;;;;;;4970293;28;20055;-62
2023/06/26 08:14:12;;;;;;;6.15;2.10;;;;;;;;;;4969830;28;20046;-62
2023/06/26 08:16:39;;;;;;;2.95;1.23;;;;;;;;;;4970120;28;20047;-62
2023/06/26 08:19:05;;;;;;;4.72;2.15;;;;;;;;;;4967888;28;20046;-62
2023/06/26 08:21:31;;;;;;;4.15;1.63;;;;;;;;;;4970171;28;20039;-62
2023/06/26 08:23:57;;;;;;;5.55;2.05;;;;;;;;;;4970239;28;20053;-62
2023/06/26 08:26:23;;;;;;;4.05;1.80;;;;;;;;;;4970013;28;20172;-62
2023/06/26 08:28:49;;;;;;;4.97;1.52;;;;;;;;;;4971007;28;20072;-62
2023/06/26 08:31:15;;;;;;;6.03;1.83;;;;;;;;;;4970788;28;20051;-62
2023/06/26 08:33:41;;;;;;;4.30;1.58;;;;;;;;;;4969439;28;20057;-63
2023/06/26 08:36:07;;;;;;;5.57;1.92;;;;;;;;;;4970293;28;20055;-63
2023/06/26 08:38:33;;;;;;;3.80;1.90;;;;;;;;;;4970700;28;20046;-63
2023/06/26 08:40:59;;;;;;;6.07;1.55;;;;;;;;;;4970294;28;20410;-63
2023/06/26 08:43:26;;;;;;;5.43;1.90;;;;;;;;;;4970365;28;20126;-62
2023/06/26 08:45:52;;;;;;;4.65;2.10;;;;;;;;;;4970098;28;20093;-63
2023/06/26 08:48:18;;;;;;;8.75;1.85;;;;;;;;;;4970143;28;20465;-62
2023/06/26 08:50:45;;;;;;;7.60;2.58;;;;;;;;;;4960781;28;20050;-63
2023/06/26 08:53:29;;;;;;;4.22;2.25;;;;;;;;;;4968068;28;20888;-62
2023/06/26 08:55:57;;;;;;;7.65;2.10;;;;;;;;;;4970045;28;20054;-62
2023/06/26 08:58:24;;;;;;;10.07;2.47;;;;;;;;;;4969949;28;20047;-62
2023/06/26 09:00:50;;;;;;;6.75;2.20;;;;;;;;;;4970407;28;20039;-62
2023/06/26 09:03:16;;;;;;;4.53;1.90;;;;;;;;;;4970495;28;20043;-62
2023/06/26 09:05:42;;;;;;;4.80;2.40;;;;;;;;;;4959106;28;20047;-62
2023/06/26 09:08:08;;;;;;;5.40;2.10;;;;;;;;;;4950911;29;20066;-62
2023/06/26 09:10:34;;;;;;;4.28;1.90;;;;;;;;;;4950355;29;20058;-62
2023/06/26 09:13:01;;;;;;;5.95;2.63;;;;;;;;;;4951089;28;20039;-62
2023/06/26 09:15:30;;;;;;;5.03;1.88;;;;;;;;;;4970203;28;20421;-62
2023/06/26 09:17:58;;;;;;;5.15;2.20;;;;;;;;;;4970109;28;20046;-62
2023/06/26 09:20:28;;;;;;;8.50;2.47;;;;;;;;;;4969912;28;20050;-62
2023/06/26 09:22:56;;;;;;;5.88;2.88;;;;;;;;;;4969599;28;20054;-62
2023/06/26 09:25:23;;;;;;;6.32;2.40;;;;;;;;;;4964854;28;20093;-62
2023/06/26 09:27:49;;;;;;;5.43;2.17;;;;;;;;;;4969388;28;20058;-62
2023/06/26 09:30:18;;;;;;;4.63;2.28;;;;;;;;;;4968867;28;20437;-62
2023/06/26 09:32:44;;;;;;;6.13;2.40;;;;;;;;;;4969340;28;20055;-62
2023/06/26 09:35:10;;;;;;;8.15;2.90;;;;;;;;;;4967079;28;20053;-62
2023/06/26 09:37:36;;;;;;;7.18;2.80;;;;;;;;;;4969593;28;20057;-62
2023/06/26 09:40:03;;;;;;;4.95;2.13;;;;;;;;;;4969777;28;20061;-62
2023/06/26 09:42:29;;;;;;;7.22;2.10;;;;;;;;;;4969482;28;20544;-62
2023/06/26 09:44:55;;;;;;;5.07;1.95;;;;;;;;;;4952534;28;20050;-63
2023/06/26 09:47:21;;;;;;;4.78;2.25;;;;;;;;;;4969750;28;20051;-63
2023/06/26 09:49:48;;;;;;;8.25;2.10;;;;;;;;;;4966365;28;20055;-63
2023/06/26 09:52:16;;;;;;;5.63;2.10;;;;;;;;;;4958215;28;20058;-62
2023/06/26 09:54:43;;;;;;;5.40;2.35;;;;;;;;;;4952251;28;20059;-63
2023/06/26 09:57:10;;;;;;;4.90;2.47;;;;;;;;;;4968077;28;20062;-62
2023/06/26 09:59:36;;;;;;;8.77;2.40;;;;;;;;;;4942575;29;20406;-62
2023/06/26 10:02:02;;;;;;;10.98;3.00;;;;;;;;;;4962241;28;20138;-62
2023/06/26 10:04:28;;;;;;;5.72;2.15;;;;;;;;;;4966905;28;20545;-62
2023/06/26 10:06:58;;;;;;;8.48;2.40;;;;;;;;;;4968243;28;20093;-63
2023/06/26 10:09:25;;;;;;;9.25;2.67;;;;;;;;;;4962231;28;20040;-62
2023/06/26 10:11:59;;;;;;;7.53;2.28;;;;;;;;;;4949397;29;20043;-62
2023/06/26 10:14:30;;;;;;;7.90;2.17;;;;;;;;;;4956608;28;20057;-62
2023/06/26 10:16:58;;;;;;;6.93;2.35;;;;;;;;;;4968000;28;20054;-63
2023/06/26 10:19:26;;;;;;;5.45;2.35;;;;;;;;;;4956471;28;20047;-63
2023/06/26 10:21:55;;;;;;;7.45;2.63;;;;;;;;;;4948141;29;20055;-63
2023/06/26 10:24:22;;;;;;;3.42;1.92;;;;;;;;;;4948208;28;20506;-62
2023/06/26 10:26:51;;;;;;;5.25;2.10;;;;;;;;;;4948518;29;20494;-62
2023/06/26 10:29:18;;;;;;;6.78;2.47;;;;;;;;;;4948814;28;20569;-63
2023/06/26 10:31:46;;;;;;;6.65;2.20;;;;;;;;;;4949106;28;20447;-63
2023/06/26 10:34:13;;;;;;;6.82;2.30;;;;;;;;;;4948545;28;20051;-63
2023/06/26 10:36:39;;;;;;;6.75;2.30;;;;;;;;;;4949359;28;20055;-64
2023/06/26 10:39:06;;;;;;;7.05;2.60;;;;;;;;;;4952563;29;20053;-64
2023/06/26 10:41:38;;;;;;;11.68;3.03;;;;;;;;;;4953000;29;20411;-63
2023/06/26 10:44:04;;;;;;;9.38;2.60;;;;;;;;;;4952797;29;20047;-63
2023/06/26 10:46:33;;;;;;;12.05;3.33;;;;;;;;;;4952963;29;20043;-63
2023/06/26 10:49:00;;;;;;;5.70;2.08;;;;;;;;;;4953399;29;20047;-63
2023/06/26 10:51:27;;;;;;;6.93;1.80;;;;;;;;;;4952467;29;20047;-63
2023/06/26 10:53:56;;;;;;;4.80;1.77;;;;;;;;;;4952437;29;20056;-63
2023/06/26 10:56:41;;;;;;;3.80;1.52;;;;;;;;;;4952618;29;20444;-63
2023/06/26 10:59:20;;;;;;;5.40;1.60;;;;;;;;;;4952558;29;20383;-63
2023/06/26 11:01:47;;;;;;;4.50;1.67;;;;;;;;;;4952487;29;20051;-63
2023/06/26 11:04:16;;;;;;;7.47;2.40;;;;;;;;;;4952877;29;20043;-63
2023/06/26 11:06:43;;;;;;;5.55;1.92;;;;;;;;;;4952532;29;20050;-63
2023/06/26 11:09:11;;;;;;;6.60;1.88;;;;;;;;;;4970154;28;20146;-63
2023/06/26 11:11:52;;;;;;;6.28;1.95;;;;;;;;;;4971599;28;20046;-63
2023/06/26 11:14:25;;;;;;;4.80;2.00;;;;;;;;;;4971720;28;20047;-63
2023/06/26 11:16:51;;;;;;;5.60;1.98;;;;;;;;;;4971790;28;20138;-63
2023/06/26 11:19:18;;;;;;;8.88;2.15;;;;;;;;;;4971677;28;20046;-63
2023/06/26 11:21:44;;;;;;;5.75;1.88;;;;;;;;;;4971776;28;20090;-63
2023/06/26 11:24:11;;;;;;;4.13;1.63;;;;;;;;;;4970882;28;20121;-64
2023/06/26 11:26:46;;;;;;;4.72;1.38;;;;;;;;;;4971213;28;20046;-61
2023/06/26 11:29:13;;;;;;;6.72;1.77;;;;;;;;;;4971318;28;20065;-63
2023/06/26 11:31:40;;;;;;;4.43;1.60;;;;;;;;;;4971148;28;20421;-63
2023/06/26 11:34:08;;;;;;;5.70;1.60;;;;;;;;;;4971227;28;20405;-63
2023/06/26 11:36:36;;;;;;;5.80;1.60;;;;;;;;;;4971159;28;20046;-63
2023/06/26 11:39:03;;;;;;;4.88;1.65;;;;;;;;;;4971421;28;20055;-63
2023/06/26 11:41:33;;;;;;;6.05;1.63;;;;;;;;;;4971296;28;20130;-64
2023/06/26 11:44:06;;;;;;;5.10;1.40;;;;;;;;;;4970588;28;20453;-64
2023/06/26 11:46:34;;;;;;;4.47;1.90;;;;;;;;;;4970930;28;20054;-64
2023/06/26 11:49:00;;;;;;;4.80;1.60;;;;;;;;;;4970663;28;20098;-64
2023/06/26 11:51:29;;;;;;;3.42;1.40;;;;;;;;;;4971080;28;20046;-63
2023/06/26 11:53:55;;;;;;;5.20;1.42;;;;;;;;;;4970581;28;20046;-63
2023/06/26 11:56:25;;;;;;;6.15;1.48;;;;;;;;;;4970765;28;20452;-61
2023/06/26 11:59:02;;;;;;;5.13;1.15;;;;;;;;;;4971009;28;20047;-61
2023/06/26 12:01:32;;;;;;;4.47;1.23;;;;;;;;;;4970329;28;20051;-62
2023/06/26 12:04:05;;;;;;;4.20;1.52;;;;;;;;;;4970926;28;20047;-63
2023/06/26 12:06:32;;;;;;;3.90;1.08;;;;;;;;;;4970863;28;20055;-62
2023/06/26 12:08:59;;;;;;;5.82;1.40;;;;;;;;;;4971043;28;20097;-62
2023/06/26 12:11:26;;;;;;;5.53;1.60;;;;;;;;;;4970797;28;20066;-62
2023/06/26 12:13:52;;;;;;;4.88;1.77;;;;;;;;;;4970766;28;20101;-62
2023/06/26 12:16:19;;;;;;;10.73;2.97;;;;;;;;;;4970873;28;20062;-62
2023/06/26 12:18:45;;;;;;;10.20;2.22;;;;;;;;;;4970738;28;20039;-62
2023/06/26 12:21:28;;;;;;;5.50;1.48;;;;;;;;;;4970422;28;20053;-62
2023/06/26 12:23:58;;;;;;;5.47;1.88;;;;;;;;;;4970785;28;20047;-62
2023/06/26 12:26:26;;;;;;;6.53;1.80;;;;;;;;;;4970206;28;20109;-62
2023/06/26 12:28:52;;;;;;;7.70;1.77;;;;;;;;;;4970376;28;20130;-62
2023/06/26 12:31:21;;;;;;;8.13;1.85;;;;;;;;;;4970226;28;20491;-63
2023/06/26 12:33:47;;;;;;;5.53;1.38;;;;;;;;;;4969949;28;20046;-62
2023/06/26 12:36:13;;;;;;;5.75;1.85;;;;;;;;;;4970419;28;20039;-62
2023/06/26 12:38:39;;;;;;;4.32;1.33;;;;;;;;;;4969689;28;20093;-62
2023/06/26 12:41:05;;;;;;;4.47;1.40;;;;;;;;;;4969886;28;20479;-63
2023/06/26 12:43:31;;;;;;;4.65;1.50;;;;;;;;;;4970192;28;20046;-63
2023/06/26 12:45:57;;;;;;;4.63;1.13;;;;;;;;;;4969861;28;20117;-62
2023/06/26 12:48:48;;;;;;;9.80;1.48;;;;;;;;;;4969938;28;20042;-63
2023/06/26 12:51:15;;;;;;;7.35;1.73;;;;;;;;;;4970038;28;20556;-63
2023/06/26 12:53:42;;;;;;;3.58;0.93;;;;;;;;;;4969957;28;20043;-63
2023/06/26 12:56:09;;;;;;;6.72;1.70;;;;;;;;;;4969521;28;20456;-62
2023/06/26 12:58:35;;;;;;;6.30;1.63;;;;;;;;;;4969926;28;20043;-62
2023/06/26 13:01:04;;;;;;;7.53;1.40;;;;;;;;;;4968963;28;20073;-62
2023/06/26 13:03:31;;;;;;;6.55;2.13;;;;;;;;;;4969246;28;20125;-63
2023/06/26 13:05:57;;;;;;;6.70;1.55;;;;;;;;;;4970053;28;20039;-63
2023/06/26 13:08:23;;;;;;;4.30;1.20;;;;;;;;;;4969487;28;20568;-62
2023/06/26 13:10:49;;;;;;;5.55;1.52;;;;;;;;;;4952574;28;20423;-62
2023/06/26 13:13:15;;;;;;;7.20;2.15;;;;;;;;;;4969744;28;20378;-62
2023/06/26 13:15:41;;;;;;;5.07;1.40;;;;;;;;;;4969459;28;20050;-62
2023/06/26 13:18:07;;;;;;;4.22;1.38;;;;;;;;;;4969048;28;20047;-62
2023/06/26 13:20:33;;;;;;;6.97;1.38;;;;;;;;;;4969566;28;20512;-62
2023/06/26 13:22:59;;;;;;;4.32;1.77;;;;;;;;;;4969156;28;20043;-62
2023/06/26 13:25:25;;;;;;;4.72;1.33;;;;;;;;;;4969359;28;20058;-62
2023/06/26 13:27:51;;;;;;;5.53;1.80;;;;;;;;;;4969457;28;20062;-63
2023/06/26 13:30:16;;;;;;;4.50;1.55;;;;;;;;;;4968989;28;20388;-63
2023/06/26 13:32:43;;;;;;;5.47;1.70;;;;;;;;;;4969172;28;20413;-63
2023/06/26 13:35:09;;;;;;;6.88;1.60;;;;;;;;;;4969321;28;20046;-62
2023/06/26 13:37:36;;;;;;;6.85;2.17;;;;;;;;;;4969158;28;20061;-62
2023/06/26 13:40:03;;;;;;;5.93;1.20;;;;;;;;;;4969593;28;20147;-62
2023/06/26 13:42:29;;;;;;;3.80;1.17;;;;;;;;;;4968709;28;20512;-62
2023/06/26 13:44:55;;;;;;;7.40;1.27;;;;;;;;;;4969083;28;20066;-62
2023/06/26 13:47:21;;;;;;;5.18;1.90;;;;;;;;;;4969227;28;20497;-63
2023/06/26 13:49:47;;;;;;;3.20;1.02;;;;;;;;;;4969355;28;20050;-62
2023/06/26 13:52:13;;;;;;;5.78;1.30;;;;;;;;;;4969134;28;20141;-62
2023/06/26 13:54:40;;;;;;;5.15;1.55;;;;;;;;;;4968726;28;20571;-63
2023/06/26 13:57:07;;;;;;;6.90;1.13;;;;;;;;;;4968625;28;20286;-62
2023/06/26 13:59:33;;;;;;;3.75;1.27;;;;;;;;;;4968982;28;20042;-63
2023/06/26 14:01:59;;;;;;;6.15;2.03;;;;;;;;;;4969031;28;20485;-62
2023/06/26 14:04:25;;;;;;;6.30;1.67;;;;;;;;;;4969617;28;20169;-63
2023/06/26 14:06:51;;;;;;;6.18;2.08;;;;;;;;;;4968732;28;20422;-62
2023/06/26 14:09:17;;;;;;;9.93;1.35;;;;;;;;;;4968755;28;20161;-63
2023/06/26 14:11:44;;;;;;;7.53;1.95;;;;;;;;;;4969735;28;20469;-63
2023/06/26 14:14:10;;;;;;;6.70;1.60;;;;;;;;;;4973177;28;20096;-63
2023/06/26 14:16:36;;;;;;;5.25;1.63;;;;;;;;;;4972344;28;20086;-61
2023/06/26 14:19:02;;;;;;;6.68;1.63;;;;;;;;;;4972832;28;20085;-61
2023/06/26 14:21:28;;;;;;;6.05;1.60;;;;;;;;;;4972583;28;20108;-61
2023/06/26 14:23:55;;;;;;;6.85;1.60;;;;;;;;;;4972226;28;20051;-61
2023/06/26 14:26:21;;;;;;;7.53;1.60;;;;;;;;;;4972568;28;20135;-61
2023/06/26 14:28:47;;;;;;;6.72;1.60;;;;;;;;;;4972357;28;20669;-64
2023/06/26 14:31:13;;;;;;;7.55;1.73;;;;;;;;;;4972662;28;20219;-63